createdAt,value
2018-08-13T00:01:08.288Z,66.21
2018-08-13T00:03:37.072Z,65.84
2018-08-13T00:06:05.871Z,66.63
2018-08-13T00:08:34.746Z,67.10
2018-08-13T00:11:03.750Z,66.82
2018-08-13T00:13:32.439Z,66.01
2018-08-13T00:16:01.431Z,65.67
2018-08-13T00:18:30.566Z,66.08
2018-08-13T00:20:59.846Z,65.59
2018-08-13T00:23:28.662Z,65.41
2018-08-13T00:25:57.654Z,65.08
2018-08-13T00:28:26.955Z,65.49
2018-08-13T00:30:55.776Z,65.65
2018-08-13T00:33:24.494Z,65.54
2018-08-13T00:35:53.148Z,65.12
2018-08-13T00:38:22.222Z,65.06
2018-08-13T00:40:51.061Z,67.00
2018-08-13T00:43:20.074Z,67.25
2018-08-13T00:45:48.726Z,66.48
2018-08-13T00:48:17.537Z,66.77
2018-08-13T00:50:46.603Z,65.73
2018-08-13T00:53:15.806Z,66.27
2018-08-13T00:55:44.586Z,66.66
2018-08-13T00:58:13.786Z,67.00
2018-08-13T01:00:42.399Z,67.77
2018-08-13T01:03:11.238Z,67.78
2018-08-13T01:05:39.907Z,67.38
2018-08-13T01:08:08.984Z,67.36
2018-08-13T01:10:37.954Z,66.51
2018-08-13T01:13:07.314Z,67.13
2018-08-13T01:15:36.234Z,66.95
2018-08-13T01:18:05.878Z,66.81
2018-08-13T01:20:34.735Z,68.00
2018-08-13T01:23:03.706Z,67.86
2018-08-13T01:25:32.761Z,68.51
2018-08-13T01:28:01.598Z,67.83
2018-08-13T01:30:30.451Z,68.38
2018-08-13T01:32:59.133Z,68.93
2018-08-13T01:35:27.902Z,69.70
2018-08-13T01:37:56.955Z,70.22
2018-08-13T01:40:25.982Z,70.37
2018-08-13T01:42:55.083Z,70.26
2018-08-13T01:45:24.138Z,71.06
2018-08-13T01:47:53.187Z,70.66
2018-08-13T01:50:22.018Z,70.02
2018-08-13T01:52:51.078Z,69.28
2018-08-13T01:55:20.128Z,68.43
2018-08-13T01:57:48.807Z,69.13
2018-08-13T02:00:17.845Z,69.64
2018-08-13T02:02:46.966Z,70.75
2018-08-13T02:05:16.203Z,70.37
2018-08-13T02:07:45.141Z,69.71
2018-08-13T02:10:14.199Z,70.10
2018-08-13T02:12:43.166Z,69.18
2018-08-13T02:15:12.172Z,69.04
2018-08-13T02:17:41.346Z,68.85
2018-08-13T02:20:10.641Z,68.92
2018-08-13T02:22:39.742Z,68.77
2018-08-13T02:25:09.162Z,68.82
2018-08-13T02:27:38.302Z,68.77
2018-08-13T02:30:09.139Z,69.03
2018-08-13T02:32:38.379Z,69.41
2018-08-13T02:35:08.131Z,69.73
2018-08-13T02:37:37.184Z,69.67
2018-08-13T02:40:07.855Z,69.91
2018-08-13T02:42:36.964Z,71.71
2018-08-13T02:45:07.865Z,72.51
2018-08-13T02:47:37.087Z,72.28
2018-08-13T02:50:07.675Z,72.16
2018-08-13T02:52:36.671Z,71.87
2018-08-13T02:55:05.670Z,72.08
2018-08-13T02:57:34.678Z,71.66
2018-08-13T03:00:04.106Z,70.92
2018-08-13T03:02:32.998Z,70.94
2018-08-13T03:05:01.907Z,70.34
2018-08-13T03:07:30.814Z,70.24
2018-08-13T03:09:59.845Z,70.64
2018-08-13T03:12:28.888Z,70.05
2018-08-13T03:14:57.765Z,71.17
2018-08-13T03:17:31.359Z,71.66
2018-08-13T03:20:01.369Z,72.84
2018-08-13T03:22:31.273Z,72.36
2018-08-13T03:25:01.517Z,72.20
2018-08-13T03:27:30.778Z,72.36
2018-08-13T03:30:00.451Z,72.73
2018-08-13T03:32:29.282Z,71.86
2018-08-13T03:34:58.410Z,72.58
2018-08-13T03:37:27.477Z,72.63
2018-08-13T03:39:56.574Z,73.15
2018-08-13T03:42:25.533Z,73.36
2018-08-13T03:44:54.679Z,73.27
2018-08-13T03:47:23.593Z,73.06
2018-08-13T03:49:52.310Z,73.42
2018-08-13T03:52:21.023Z,72.96
2018-08-13T03:54:49.915Z,72.45
2018-08-13T03:57:18.862Z,72.16
2018-08-13T03:59:47.606Z,71.85
2018-08-13T04:02:16.735Z,71.75
2018-08-13T04:04:45.957Z,71.05
2018-08-13T04:07:14.763Z,71.62
2018-08-13T04:09:45.179Z,71.58
2018-08-13T04:12:14.998Z,71.18
2018-08-13T04:14:43.886Z,70.96
2018-08-13T04:17:12.803Z,71.22
2018-08-13T04:19:41.671Z,70.16
2018-08-13T04:22:10.874Z,70.31
2018-08-13T04:24:39.966Z,69.76
2018-08-13T04:27:08.906Z,69.45
2018-08-13T04:29:37.578Z,69.39
2018-08-13T04:32:06.691Z,67.80
2018-08-13T04:34:35.531Z,67.10
2018-08-13T04:37:04.322Z,68.02
2018-08-13T04:39:33.427Z,66.69
2018-08-13T04:42:02.252Z,67.54
2018-08-13T04:44:31.257Z,67.57
2018-08-13T04:47:00.127Z,68.15
2018-08-13T04:49:29.229Z,68.78
2018-08-13T04:51:58.289Z,67.31
2018-08-13T04:54:27.229Z,66.51
2018-08-13T04:56:56.399Z,65.30
2018-08-13T04:59:25.113Z,65.71
2018-08-13T05:01:53.886Z,65.36
2018-08-13T05:04:22.547Z,64.86
2018-08-13T05:06:51.212Z,64.34
2018-08-13T05:09:20.071Z,63.97
2018-08-13T05:11:49.066Z,63.76
2018-08-13T05:14:18.266Z,64.17
2018-08-13T05:16:47.125Z,64.37
2018-08-13T05:19:16.240Z,63.49
2018-08-13T05:21:45.286Z,62.69
2018-08-13T05:24:14.315Z,63.17
2018-08-13T05:26:43.241Z,63.15
2018-08-13T05:29:12.094Z,63.59
2018-08-13T05:31:41.399Z,63.09
2018-08-13T05:34:10.206Z,62.13
2018-08-13T05:36:38.972Z,62.50
2018-08-13T05:39:09.938Z,61.37
2018-08-13T05:41:39.224Z,61.26
2018-08-13T05:44:08.514Z,60.80
2018-08-13T05:46:37.537Z,60.64
2018-08-13T05:49:06.780Z,59.09
2018-08-13T05:51:35.518Z,59.68
2018-08-13T05:54:04.375Z,59.65
2018-08-13T05:56:33.428Z,59.13
2018-08-13T05:59:02.322Z,58.14
2018-08-13T06:01:31.270Z,57.64
2018-08-13T06:04:00.147Z,58.64
2018-08-13T06:06:28.863Z,58.88
2018-08-13T06:08:57.598Z,58.92
2018-08-13T06:11:26.805Z,57.94
2018-08-13T06:13:55.685Z,57.64
2018-08-13T06:16:24.555Z,57.15
2018-08-13T06:18:53.290Z,56.51
2018-08-13T06:21:22.350Z,56.33
2018-08-13T06:23:51.293Z,56.28
2018-08-13T06:26:20.325Z,56.24
2018-08-13T06:28:49.086Z,54.78
2018-08-13T06:31:18.006Z,55.28
2018-08-13T06:33:46.860Z,54.90
2018-08-13T06:36:15.908Z,55.25
2018-08-13T06:38:44.826Z,53.34
2018-08-13T06:41:13.931Z,52.29
2018-08-13T06:43:42.859Z,52.35
2018-08-13T06:46:11.768Z,52.49
2018-08-13T06:48:40.711Z,52.26
2018-08-13T06:51:09.739Z,52.78
2018-08-13T06:53:39.926Z,51.49
2018-08-13T06:56:09.779Z,51.89
2018-08-13T06:58:38.516Z,50.99
2018-08-13T07:01:07.766Z,50.56
2018-08-13T07:03:36.463Z,50.22
2018-08-13T07:06:05.221Z,49.85
2018-08-13T07:08:34.014Z,49.81
2018-08-13T07:11:03.107Z,48.72
2018-08-13T07:13:32.294Z,48.99
2018-08-13T07:16:01.239Z,48.90
2018-08-13T07:18:30.367Z,47.91
2018-08-13T07:20:59.587Z,46.76
2018-08-13T07:23:28.682Z,47.99
2018-08-13T07:25:57.723Z,47.28
2018-08-13T07:28:26.755Z,47.45
2018-08-13T07:30:55.707Z,47.20
2018-08-13T07:33:24.603Z,47.70
2018-08-13T07:35:53.259Z,46.82
2018-08-13T07:38:21.933Z,46.39
2018-08-13T07:40:50.600Z,46.02
2018-08-13T07:43:19.380Z,45.78
2018-08-13T07:45:48.405Z,45.86
2018-08-13T07:48:17.038Z,46.88
2018-08-13T07:50:45.922Z,44.97
2018-08-13T07:53:14.802Z,45.88
2018-08-13T07:55:43.708Z,44.54
2018-08-13T07:58:12.659Z,45.09
2018-08-13T08:00:41.467Z,44.44
2018-08-13T08:03:10.217Z,45.70
2018-08-13T08:05:38.970Z,46.02
2018-08-13T08:08:07.983Z,45.51
2018-08-13T08:10:36.909Z,46.10
2018-08-13T08:13:05.792Z,44.95
2018-08-13T08:15:34.594Z,43.84
2018-08-13T08:18:03.643Z,44.09
2018-08-13T08:20:32.624Z,43.07
2018-08-13T08:23:01.487Z,42.04
2018-08-13T08:25:30.662Z,42.95
2018-08-13T08:27:59.836Z,42.88
2018-08-13T08:30:28.663Z,41.82
2018-08-13T08:32:57.694Z,41.27
2018-08-13T08:35:26.370Z,40.85
2018-08-13T08:37:55.155Z,40.93
2018-08-13T08:40:24.027Z,40.58
2018-08-13T08:42:53.342Z,40.73
2018-08-13T08:45:24.039Z,39.80
2018-08-13T08:47:53.641Z,39.62
2018-08-13T08:50:22.866Z,39.75
2018-08-13T08:52:52.007Z,39.55
2018-08-13T08:55:21.197Z,37.04
2018-08-13T08:57:50.856Z,37.60
2018-08-13T09:00:21.251Z,37.71
2018-08-13T09:02:49.920Z,37.33
2018-08-13T09:05:18.885Z,35.53
2018-08-13T09:07:47.908Z,35.99
2018-08-13T09:10:16.816Z,34.09
2018-08-13T09:12:45.735Z,34.93
2018-08-13T09:15:16.296Z,35.47
2018-08-13T09:17:57.191Z,34.20
2018-08-13T09:20:37.012Z,34.10
2018-08-13T09:23:16.728Z,33.99
2018-08-13T09:25:56.516Z,32.83
2018-08-13T09:28:36.490Z,31.74
2018-08-13T09:32:21.583Z,31.79
2018-08-13T09:35:27.882Z,31.60
2018-08-13T09:37:57.423Z,33.29
2018-08-13T09:40:27.432Z,33.16
2018-08-13T09:42:56.418Z,32.56
2018-08-13T09:45:25.649Z,31.78
2018-08-13T09:47:54.927Z,31.53
2018-08-13T09:50:24.153Z,31.73
2018-08-13T09:52:53.154Z,33.20
2018-08-13T09:55:22.367Z,32.90
2018-08-13T09:57:51.736Z,32.06
2018-08-13T10:00:26.431Z,32.34
2018-08-13T10:02:55.281Z,32.18
2018-08-13T10:05:24.134Z,30.87
2018-08-13T10:07:52.860Z,30.62
2018-08-13T10:10:21.867Z,28.76
2018-08-13T10:12:50.745Z,27.84
2018-08-13T10:15:19.658Z,29.25
2018-08-13T10:17:48.465Z,29.50
2018-08-13T10:20:19.039Z,29.49
2018-08-13T10:22:48.527Z,30.06
2018-08-13T10:25:17.552Z,29.35
2018-08-13T10:27:46.615Z,28.07
2018-08-13T10:30:16.362Z,28.87
2018-08-13T10:32:45.379Z,28.52
2018-08-13T10:35:14.360Z,27.91
2018-08-13T10:37:44.003Z,27.85
2018-08-13T10:40:14.806Z,27.94
2018-08-13T10:42:43.752Z,28.15
2018-08-13T10:45:12.733Z,27.80
2018-08-13T10:47:41.969Z,27.03
2018-08-13T10:50:12.586Z,27.13
2018-08-13T10:52:41.991Z,27.33
2018-08-13T10:55:12.294Z,26.56
2018-08-13T10:57:41.555Z,24.18
2018-08-13T11:00:12.290Z,24.47
2018-08-13T11:02:41.124Z,25.03
2018-08-13T11:05:11.558Z,25.04
2018-08-13T11:07:40.259Z,24.45
2018-08-13T11:10:11.771Z,24.34
2018-08-13T11:12:40.841Z,23.49
2018-08-13T11:15:13.102Z,23.22
2018-08-13T11:17:41.790Z,23.41
2018-08-13T11:20:10.721Z,23.25
2018-08-13T11:22:40.413Z,23.04
2018-08-13T11:25:10.784Z,22.20
2018-08-13T11:27:39.740Z,22.63
2018-08-13T11:30:16.794Z,23.97
2018-08-13T11:32:45.758Z,22.50
2018-08-13T11:35:15.260Z,22.19
2018-08-13T11:40:27.751Z,22.22
2018-08-13T11:42:56.579Z,21.37
2018-08-13T11:45:25.807Z,20.45
2018-08-13T11:47:54.835Z,20.67
2018-08-13T11:50:23.797Z,20.11
2018-08-13T11:52:52.494Z,19.55
2018-08-13T11:55:21.682Z,19.63
2018-08-13T11:57:51.230Z,19.64
2018-08-13T12:00:20.080Z,19.34
2018-08-13T12:02:48.831Z,17.75
2018-08-13T12:05:17.595Z,18.33
2018-08-13T12:07:46.669Z,18.89
2018-08-13T12:10:16.081Z,20.31
2018-08-13T12:12:45.462Z,20.05
2018-08-13T12:15:14.966Z,19.84
2018-08-13T12:17:44.373Z,19.83
2018-08-13T12:20:19.295Z,18.94
2018-08-13T12:22:48.641Z,18.22
2018-08-13T12:25:20.444Z,18.55
2018-08-13T12:27:49.472Z,18.25
2018-08-13T12:30:18.374Z,17.14
2018-08-13T12:32:47.259Z,16.12
2018-08-13T12:35:16.063Z,16.48
2018-08-13T12:37:45.247Z,17.33
2018-08-13T12:40:14.438Z,18.13
2018-08-13T12:42:43.529Z,18.01
2018-08-13T12:45:14.988Z,17.87
2018-08-13T12:47:44.122Z,17.68
2018-08-13T12:50:16.516Z,17.17
2018-08-13T12:52:46.754Z,16.40
2018-08-13T12:55:16.074Z,15.74
2018-08-13T12:57:45.143Z,15.51
2018-08-13T13:00:17.236Z,14.64
2018-08-13T13:02:46.171Z,15.12
2018-08-13T13:05:16.348Z,14.68
2018-08-13T13:07:45.346Z,16.22
2018-08-13T13:10:15.593Z,16.00
2018-08-13T13:12:45.242Z,15.89
2018-08-13T13:15:15.817Z,15.05
2018-08-13T13:17:44.870Z,14.34
2018-08-13T13:20:15.711Z,15.04
2018-08-13T13:22:44.770Z,14.11
2018-08-13T13:25:14.098Z,14.23
2018-08-13T13:27:43.135Z,15.10
2018-08-13T13:30:13.687Z,14.04
2018-08-13T13:32:42.953Z,13.42
2018-08-13T13:35:13.647Z,13.16
2018-08-13T13:37:42.532Z,12.92
2018-08-13T13:40:14.758Z,13.19
2018-08-13T13:42:43.643Z,12.69
2018-08-13T13:45:12.766Z,12.98
2018-08-13T13:47:42.163Z,12.59
2018-08-13T13:50:13.827Z,11.81
2018-08-13T13:52:43.142Z,11.73
2018-08-13T13:55:12.027Z,12.74
2018-08-13T13:57:40.718Z,12.29
2018-08-13T14:00:14.192Z,12.27
2018-08-13T14:02:43.096Z,12.20
2018-08-13T14:05:12.294Z,12.43
2018-08-13T14:07:41.712Z,12.65
2018-08-13T14:10:14.862Z,11.83
2018-08-13T14:12:44.814Z,12.66
2018-08-13T14:15:15.097Z,12.53
2018-08-13T14:17:44.629Z,12.55
2018-08-13T14:20:14.024Z,12.08
2018-08-13T14:22:42.797Z,11.88
2018-08-13T14:25:13.267Z,11.75
2018-08-13T14:27:42.086Z,11.29
2018-08-13T14:30:19.794Z,11.40
2018-08-13T14:32:48.970Z,11.52
2018-08-13T14:35:19.209Z,11.27
2018-08-13T14:37:48.164Z,11.37
2018-08-13T14:40:17.338Z,11.34
2018-08-13T14:42:46.609Z,10.46
2018-08-13T14:45:16.809Z,10.76
2018-08-13T14:47:48.289Z,10.47
2018-08-13T14:50:17.352Z,10.88
2018-08-13T14:52:48.015Z,11.28
2018-08-13T14:55:18.452Z,10.53
2018-08-13T14:57:47.397Z,10.48
2018-08-13T15:00:20.379Z,11.21
2018-08-13T15:02:49.370Z,10.80
2018-08-13T15:05:18.642Z,11.22
2018-08-13T15:07:47.865Z,10.84
2018-08-13T15:10:18.374Z,10.56
2018-08-13T15:12:47.429Z,10.67
2018-08-13T15:15:16.287Z,11.53
2018-08-13T15:17:45.555Z,11.18
2018-08-13T15:20:19.464Z,11.71
2018-08-13T15:22:48.316Z,10.85
2018-08-13T15:25:17.356Z,10.77
2018-08-13T15:27:46.416Z,11.23
2018-08-13T15:30:16.879Z,11.16
2018-08-13T15:32:46.971Z,10.84
2018-08-13T15:35:15.936Z,10.85
2018-08-13T15:37:45.389Z,11.01
2018-08-13T15:40:14.454Z,11.65
2018-08-13T15:42:43.305Z,11.64
2018-08-13T15:45:14.248Z,11.61
2018-08-13T15:47:43.242Z,11.60
2018-08-13T15:50:13.678Z,11.32
2018-08-13T15:52:43.070Z,12.34
2018-08-13T15:55:12.346Z,13.10
2018-08-13T15:57:41.803Z,13.23
2018-08-13T16:00:13.367Z,12.49
2018-08-13T16:02:42.141Z,12.69
2018-08-13T16:05:11.733Z,12.39
2018-08-13T16:07:41.014Z,12.91
2018-08-13T16:10:11.663Z,13.30
2018-08-13T16:12:40.571Z,12.89
2018-08-13T16:15:09.758Z,13.29
2018-08-13T16:17:39.542Z,13.50
2018-08-13T16:20:13.631Z,14.36
2018-08-13T16:22:43.074Z,14.77
2018-08-13T16:25:12.184Z,15.01
2018-08-13T16:27:41.009Z,15.86
2018-08-13T16:30:20.023Z,14.70
2018-08-13T16:32:49.266Z,15.25
2018-08-13T16:35:19.396Z,15.48
2018-08-13T16:37:48.673Z,15.74
2018-08-13T16:40:18.306Z,16.62
2018-08-13T16:42:47.939Z,16.04
2018-08-13T16:45:18.022Z,16.65
2018-08-13T16:47:46.904Z,16.48
2018-08-13T16:50:32.484Z,16.68
2018-08-13T16:53:01.841Z,16.57
2018-08-13T16:55:32.676Z,17.21
2018-08-13T16:58:02.198Z,16.37
2018-08-13T17:00:32.147Z,16.89
2018-08-13T17:03:01.600Z,16.98
2018-08-13T17:05:33.300Z,17.79
2018-08-13T17:08:02.515Z,18.12
2018-08-13T17:10:31.660Z,18.65
2018-08-13T17:13:00.631Z,19.09
2018-08-13T17:15:31.387Z,20.43
2018-08-13T17:18:01.768Z,21.06
2018-08-13T17:20:38.286Z,22.28
2018-08-13T17:23:07.351Z,23.65
2018-08-13T17:25:36.319Z,22.89
2018-08-13T17:28:05.284Z,23.54
2018-08-13T17:30:34.172Z,23.99
2018-08-13T17:33:03.006Z,24.58
2018-08-13T17:35:35.108Z,24.81
2018-08-13T17:38:06.279Z,26.35
2018-08-13T17:40:35.448Z,26.84
2018-08-13T17:43:05.238Z,26.29
2018-08-13T17:45:34.317Z,27.05
2018-08-13T17:48:04.238Z,28.27
2018-08-13T17:50:33.546Z,28.22
2018-08-13T17:53:02.559Z,28.95
2018-08-13T17:55:31.746Z,29.54
2018-08-13T17:58:00.802Z,29.61
2018-08-13T18:00:29.656Z,29.70
2018-08-13T18:02:58.356Z,29.85
2018-08-13T18:05:28.370Z,30.12
2018-08-13T18:07:58.056Z,30.12
2018-08-13T18:10:31.170Z,30.88
2018-08-13T18:13:01.466Z,31.16
2018-08-13T18:15:30.770Z,32.14
2018-08-13T18:17:59.981Z,31.65
2018-08-13T18:20:29.086Z,32.92
2018-08-13T18:22:58.099Z,32.65
2018-08-13T18:25:26.948Z,32.54
2018-08-13T18:27:55.810Z,33.21
2018-08-13T18:30:28.164Z,33.34
2018-08-13T18:32:57.110Z,33.64
2018-08-13T18:35:26.189Z,33.74
2018-08-13T18:37:55.718Z,33.76
2018-08-13T18:40:28.883Z,35.17
2018-08-13T18:42:58.260Z,35.07
2018-08-13T18:45:27.332Z,36.11
2018-08-13T18:47:56.382Z,36.77
2018-08-13T18:50:25.389Z,36.63
2018-08-13T18:52:54.583Z,37.18
2018-08-13T18:55:24.639Z,37.35
2018-08-13T18:57:54.090Z,37.02
2018-08-13T19:00:25.176Z,37.37
2018-08-13T19:02:54.314Z,37.35
2018-08-13T19:05:23.656Z,37.52
2018-08-13T19:07:53.265Z,37.97
2018-08-13T19:10:22.694Z,37.46
2018-08-13T19:12:51.706Z,37.15
2018-08-13T19:15:22.933Z,37.89
2018-08-13T19:17:52.593Z,37.95
2018-08-13T19:20:21.514Z,37.70
2018-08-13T19:22:51.139Z,38.06
2018-08-13T19:25:22.318Z,38.36
2018-08-13T19:27:51.170Z,38.63
2018-08-13T19:30:21.379Z,38.57
2018-08-13T19:32:50.771Z,40.69
2018-08-13T19:35:19.644Z,44.96
2018-08-13T19:37:49.215Z,45.04
2018-08-13T19:40:20.885Z,44.70
2018-08-13T19:42:50.902Z,47.62
2018-08-13T19:45:20.666Z,46.79
2018-08-13T19:47:50.276Z,47.93
2018-08-13T19:50:19.098Z,47.68
2018-08-13T19:52:48.866Z,48.18
2018-08-13T19:55:18.443Z,47.74
2018-08-13T19:57:47.217Z,48.27
2018-08-13T20:00:19.890Z,48.71
2018-08-13T20:02:49.320Z,48.72
2018-08-13T20:05:19.343Z,49.16
2018-08-13T20:07:48.679Z,48.90
2018-08-13T20:10:17.680Z,50.17
2018-08-13T20:12:47.599Z,50.41
2018-08-13T20:15:16.788Z,49.98
2018-08-13T20:17:51.332Z,50.84
2018-08-13T20:20:21.127Z,51.51
2018-08-13T20:22:50.415Z,51.82
2018-08-13T20:25:20.557Z,51.66
2018-08-13T20:27:50.177Z,51.98
2018-08-13T20:30:20.171Z,52.61
2018-08-13T20:32:50.325Z,53.39
2018-08-13T20:35:19.528Z,53.17
2018-08-13T20:37:48.976Z,53.09
2018-08-13T20:40:19.234Z,53.44
2018-08-13T20:42:48.563Z,53.00
2018-08-13T20:45:19.230Z,53.55
2018-08-13T20:47:48.445Z,52.61
2018-08-13T20:50:19.552Z,53.10
2018-08-13T20:52:49.290Z,53.60
2018-08-13T20:55:24.910Z,53.48
2018-08-13T20:57:53.732Z,54.49
2018-08-13T21:00:24.359Z,55.04
2018-08-13T21:02:53.751Z,54.36
2018-08-13T21:05:22.730Z,54.88
2018-08-13T21:07:51.983Z,54.88
2018-08-13T21:10:22.391Z,55.67
2018-08-13T21:12:51.643Z,56.19
2018-08-13T21:15:20.806Z,56.42
2018-08-13T21:17:49.803Z,58.62
2018-08-13T21:20:24.628Z,58.45
2018-08-13T21:22:53.663Z,58.80
2018-08-13T21:25:22.429Z,58.45
2018-08-13T21:27:51.482Z,58.50
2018-08-13T21:30:20.609Z,58.96
2018-08-13T21:32:49.603Z,59.75
2018-08-13T21:35:21.070Z,58.76
2018-08-13T21:37:50.226Z,59.06
2018-08-13T21:40:19.249Z,58.45
2018-08-13T21:42:48.878Z,58.97
2018-08-13T21:45:17.958Z,59.25
2018-08-13T21:47:46.984Z,58.95
2018-08-13T21:50:19.062Z,58.25
2018-08-13T21:52:48.951Z,59.54
2018-08-13T21:55:17.808Z,59.98
2018-08-13T21:57:46.893Z,60.13
2018-08-13T22:00:24.922Z,59.72
2018-08-13T22:02:54.976Z,59.57
2018-08-13T22:05:23.953Z,59.81
2018-08-13T22:07:53.208Z,59.15
2018-08-13T22:10:22.348Z,59.67
2018-08-13T22:12:51.558Z,59.82
2018-08-13T22:15:28.543Z,60.25
2018-08-13T22:17:58.835Z,60.03
2018-08-13T22:20:28.022Z,60.13
2018-08-13T22:22:58.294Z,60.02
2018-08-13T22:25:28.967Z,60.23
2018-08-13T22:27:58.487Z,60.26
2018-08-13T22:30:27.802Z,60.12
2018-08-13T22:32:56.771Z,59.74
2018-08-13T22:35:26.143Z,59.82
2018-08-13T22:37:55.036Z,59.76
2018-08-13T22:40:24.075Z,60.17
2018-08-13T22:42:53.614Z,60.16
2018-08-13T22:45:23.512Z,60.06
2018-08-13T22:47:52.348Z,59.83
2018-08-13T22:50:21.614Z,59.64
2018-08-13T22:52:50.463Z,59.94
2018-08-13T22:55:19.635Z,59.60
2018-08-13T22:57:48.844Z,60.33
2018-08-13T23:00:18.944Z,59.95
2018-08-13T23:02:48.738Z,59.84
2018-08-13T23:05:22.676Z,60.11
2018-08-13T23:07:51.714Z,60.78
2018-08-13T23:10:22.064Z,61.15
2018-08-13T23:12:53.604Z,61.91
2018-08-13T23:15:22.544Z,62.34
2018-08-13T23:17:52.228Z,63.23
2018-08-13T23:20:24.532Z,63.66
2018-08-13T23:22:55.591Z,63.63
2018-08-13T23:25:24.476Z,63.97
2018-08-13T23:27:54.482Z,63.71
2018-08-13T23:30:23.254Z,63.57
2018-08-13T23:32:53.347Z,63.14
2018-08-13T23:35:23.686Z,63.25
2018-08-13T23:37:52.775Z,63.36
2018-08-13T23:40:21.695Z,63.09
2018-08-13T23:42:50.811Z,62.62
2018-08-13T23:45:21.601Z,62.71
2018-08-13T23:47:50.898Z,62.39
2018-08-13T23:50:21.588Z,63.02
2018-08-13T23:52:52.794Z,63.18
2018-08-13T23:55:27.137Z,63.50
2018-08-13T23:57:56.680Z,63.92
